Time;durP1;ratioP1;P1;durP2;ratioP2;P2;SDS_P1;SDS_P2;PMS_P1;PMS_P2;Temp;Humidity;BMP_temperature;BMP_pressure;BME280_temperature;BME280_humidity;BME280_pressure;Samples;Min_cycle;Max_cycle;Signal;HPM_P1;HPM_P2
2022/08/04 00:01:01;;;;;;;4.22;2.35;;;21.60;99.90;;;;;;5030444;28;20030;-60
2022/08/04 00:04:13;;;;;;;8.23;1.95;;;21.50;99.90;;;;;;5028963;28;20172;-60
2022/08/04 00:07:20;;;;;;;7.10;2.22;;;21.40;99.90;;;;;;4982585;28;20034;-60
2022/08/04 00:09:54;;;;;;;6.00;2.15;;;21.30;99.90;;;;;;5026204;28;20033;-60
2022/08/04 00:12:20;;;;;;;;;;;21.30;99.90;;;;;;5031335;28;20060;-56
2022/08/04 00:14:48;;;;;;;6.75;2.38;;;21.30;99.90;;;;;;5028966;28;19913;-59
2022/08/04 00:17:22;;;;;;;7.05;2.50;;;21.30;99.90;;;;;;5030455;28;20454;-60
2022/08/04 00:19:51;;;;;;;8.05;1.73;;;21.20;99.90;;;;;;5027941;28;20471;-60
2022/08/04 00:22:21;;;;;;;8.55;2.20;;;21.20;99.90;;;;;;5027342;28;20037;-58
2022/08/04 00:24:47;;;;;;;3.50;2.05;;;21.20;99.90;;;;;;5028797;28;20022;-57
2022/08/04 00:27:12;;;;;;;7.20;2.05;;;21.10;99.90;;;;;;5031364;28;20060;-60
2022/08/04 00:29:38;;;;;;;6.50;2.03;;;21.00;99.90;;;;;;5033460;28;20155;-60
2022/08/04 00:32:06;;;;;;;5.90;2.03;;;21.00;99.90;;;;;;5024985;28;20037;-60
2022/08/04 00:34:33;;;;;;;3.08;2.17;;;21.00;99.90;;;;;;5024497;28;20053;-57
2022/08/04 00:36:59;;;;;;;7.35;2.22;;;21.00;99.90;;;;;;5030643;28;20048;-58
2022/08/04 00:39:26;;;;;;;6.05;2.28;;;20.90;99.90;;;;;;5031766;28;20501;-59
2022/08/04 00:42:09;;;;;;;6.70;2.67;;;20.90;99.90;;;;;;5029523;28;20039;-58
2022/08/04 00:45:06;;;;;;;6.63;2.33;;;20.90;99.90;;;;;;5030583;28;20029;-60
2022/08/04 00:48:12;;;;;;;7.70;2.65;;;20.90;99.90;;;;;;5027983;28;20075;-60
2022/08/04 00:50:58;;;;;;;7.93;2.25;;;20.90;99.90;;;;;;5027105;28;20033;-60
2022/08/04 00:54:03;;;;;;;10.02;2.85;;;21.00;99.90;;;;;;5027694;28;20395;-59
2022/08/04 00:56:40;;;;;;;;;;;20.90;99.90;;;;;;5028423;28;20033;-59
2022/08/04 00:59:14;;;;;;;7.93;2.30;;;20.80;99.90;;;;;;5032057;28;20302;-59
2022/08/04 01:01:54;;;;;;;5.97;2.25;;;20.70;99.90;;;;;;5022211;28;20044;-59
2022/08/04 01:04:44;;;;;;;3.88;2.22;;;20.70;99.90;;;;;;5031363;28;20098;-59
2022/08/04 01:07:38;;;;;;;5.70;2.53;;;20.50;99.90;;;;;;5020445;28;20400;-59
2022/08/04 01:10:16;;;;;;;5.47;2.40;;;20.40;99.90;;;;;;5027393;28;20056;-60
2022/08/04 01:13:11;;;;;;;6.78;2.50;;;20.40;99.90;;;;;;5032028;28;20095;-58
2022/08/04 01:15:51;;;;;;;4.78;2.50;;;20.40;99.90;;;;;;5029325;28;20141;-59
2022/08/04 01:18:38;;;;;;;8.38;2.53;;;20.30;99.90;;;;;;5024060;28;20486;-57
2022/08/04 01:21:28;;;;;;;4.78;2.67;;;20.20;99.90;;;;;;5027165;28;20022;-59
2022/08/04 01:24:18;;;;;;;6.55;2.35;;;20.20;99.90;;;;;;5031401;28;20037;-57
2022/08/04 01:27:26;;;;;;;4.47;2.78;;;20.20;99.90;;;;;;5029077;28;20025;-58
2022/08/04 01:29:57;;;;;;;6.35;2.40;;;20.30;99.90;;;;;;5027928;28;20033;-60
2022/08/04 01:32:43;;;;;;;5.53;2.80;;;20.20;99.90;;;;;;5065077;22;20060;-62
2022/08/04 01:35:27;;;;;;;6.85;3.33;;;20.10;99.90;;;;;;5043836;28;20033;-62
2022/08/04 01:38:11;;;;;;;7.05;2.50;;;20.00;99.90;;;;;;5044513;28;20057;-62
2022/08/04 01:40:38;;;;;;;5.95;2.50;;;20.00;99.90;;;;;;5045667;28;20128;-62
2022/08/04 01:43:04;;;;;;;11.50;2.90;;;20.00;99.90;;;;;;5049575;28;20041;-61
2022/08/04 01:45:30;;;;;;;8.45;2.67;;;19.90;99.90;;;;;;5050717;28;20025;-60
2022/08/04 01:47:56;;;;;;;7.70;2.70;;;19.80;99.90;;;;;;5048176;28;20036;-60
2022/08/04 01:50:23;;;;;;;6.43;2.92;;;19.80;99.90;;;;;;5043208;28;20033;-61
2022/08/04 01:52:52;;;;;;;7.55;2.28;;;19.80;99.90;;;;;;5049290;28;20104;-61
2022/08/04 01:55:18;;;;;;;4.85;3.00;;;19.80;99.90;;;;;;5049974;28;20113;-62
2022/08/04 01:57:48;;;;;;;6.80;2.20;;;19.80;99.90;;;;;;5043585;28;20100;-61
2022/08/04 02:00:17;;;;;;;6.50;3.30;;;19.70;99.90;;;;;;5049532;28;20029;-60
2022/08/04 02:02:44;;;;;;;7.80;2.78;;;19.80;99.90;;;;;;5044557;28;20088;-62
2022/08/04 02:05:13;;;;;;;6.82;2.70;;;19.80;99.90;;;;;;5048926;28;20422;-62
2022/08/04 02:08:12;;;;;;;7.70;2.83;;;19.80;99.90;;;;;;5045721;28;20465;-61
2022/08/04 02:10:40;;;;;;;4.50;2.47;;;19.70;99.90;;;;;;5049765;28;20096;-62
2022/08/04 02:13:24;;;;;;;8.68;2.90;;;19.80;99.90;;;;;;5050006;28;20065;-61
2022/08/04 02:16:31;;;;;;;7.03;3.20;;;19.70;99.90;;;;;;5045194;28;20501;-62
2022/08/04 02:19:04;;;;;;;7.32;3.05;;;19.70;99.90;;;;;;4936887;29;20044;-62
2022/08/04 02:21:31;;;;;;;8.73;3.13;;;19.60;99.90;;;;;;4929608;29;20059;-61
2022/08/04 02:24:04;;;;;;;5.25;2.58;;;19.50;99.90;;;;;;4991784;28;20041;-62
2022/08/04 02:26:32;;;;;;;6.38;3.00;;;19.60;99.90;;;;;;5049481;28;20025;-60
2022/08/04 02:29:18;;;;;;;5.75;2.80;;;19.60;99.90;;;;;;5047280;28;20395;-62
2022/08/04 02:31:51;;;;;;;6.60;3.05;;;19.60;99.90;;;;;;5041188;28;20369;-63
2022/08/04 02:34:27;;;;;;;5.40;2.95;;;19.60;99.90;;;;;;5043588;28;20036;-62
2022/08/04 02:36:54;;;;;;;9.52;3.40;;;19.50;99.90;;;;;;5045236;28;20081;-62
2022/08/04 02:39:21;;;;;;;5.28;2.90;;;19.50;99.90;;;;;;5048258;28;20047;-63
2022/08/04 02:41:48;;;;;;;7.10;3.33;;;19.40;99.90;;;;;;5045117;28;20112;-61
2022/08/04 02:44:20;;;;;;;4.68;2.85;;;19.50;99.90;;;;;;5050132;28;20036;-62
2022/08/04 02:46:50;;;;;;;7.75;3.40;;;19.40;99.90;;;;;;5049711;28;20116;-62
2022/08/04 02:49:17;;;;;;;7.68;3.50;;;19.40;99.90;;;;;;5048218;28;20028;-63
2022/08/04 02:51:47;;;;;;;7.32;3.20;;;19.40;99.90;;;;;;5044804;28;20064;-63
2022/08/04 02:54:16;;;;;;;8.70;3.05;;;19.30;99.90;;;;;;5048100;28;20028;-61
2022/08/04 02:56:44;;;;;;;7.20;3.35;;;19.30;99.90;;;;;;5046324;28;20074;-62
2022/08/04 02:59:11;;;;;;;7.15;3.60;;;19.30;99.90;;;;;;5048371;28;20103;-62
2022/08/04 03:01:38;;;;;;;11.23;3.20;;;19.30;99.90;;;;;;5043097;28;20040;-62
2022/08/04 03:04:16;;;;;;;8.25;3.17;;;19.30;99.90;;;;;;5051946;28;20394;-63
2022/08/04 03:07:16;;;;;;;6.00;3.33;;;19.20;99.90;;;;;;5046362;28;20383;-61
2022/08/04 03:10:14;;;;;;;5.93;3.05;;;19.20;99.90;;;;;;5051381;28;20501;-62
2022/08/04 03:13:01;;;;;;;6.28;3.20;;;19.20;99.90;;;;;;5049800;28;20056;-62
2022/08/04 03:15:57;;;;;;;10.45;3.88;;;19.20;99.90;;;;;;5043619;28;20033;-62
2022/08/04 03:18:41;;;;;;;7.70;3.50;;;19.10;99.90;;;;;;5051926;28;20147;-61
2022/08/04 03:21:37;;;;;;;8.63;3.10;;;19.10;99.90;;;;;;5044448;28;20029;-61
2022/08/04 03:24:17;;;;;;;7.10;2.95;;;19.10;99.90;;;;;;5049891;28;20044;-62
2022/08/04 03:27:01;;;;;;;8.25;3.50;;;19.10;99.90;;;;;;5052904;28;20020;-62
2022/08/04 03:29:35;;;;;;;6.63;3.90;;;19.10;99.90;;;;;;5045524;28;20402;-60
2022/08/04 03:32:31;;;;;;;6.80;3.63;;;19.10;99.90;;;;;;5051152;28;20079;-60
2022/08/04 03:35:27;;;;;;;6.78;3.15;;;19.10;99.90;;;;;;5048509;28;20711;-62
2022/08/04 03:38:30;;;;;;;6.03;3.60;;;19.10;99.90;;;;;;5042439;28;20029;-61
2022/08/04 03:41:05;;;;;;;10.45;3.50;;;19.10;99.90;;;;;;5039823;28;20103;-62
2022/08/04 03:43:57;;;;;;;5.53;3.75;;;19.10;99.90;;;;;;5045886;28;20071;-62
2022/08/04 03:46:26;;;;;;;7.28;3.80;;;19.10;99.90;;;;;;5042054;28;20025;-61
2022/08/04 03:49:19;;;;;;;5.47;3.78;;;19.10;99.90;;;;;;5053001;28;20051;-60
2022/08/04 03:55:15;;;;;;;7.35;4.07;;;19.10;99.90;;;;;;5042875;28;20067;-60
2022/08/04 03:58:00;;;;;;;5.90;3.47;;;19.10;99.90;;;;;;5049748;28;20051;-61
2022/08/04 04:01:06;;;;;;;6.85;4.53;;;19.10;99.90;;;;;;5053009;28;20053;-62
2022/08/04 04:03:46;;;;;;;8.93;4.30;;;19.10;99.90;;;;;;5048098;28;20047;-61
2022/08/04 04:06:39;;;;;;;9.23;4.50;;;19.10;99.90;;;;;;5047286;28;20038;-62
2022/08/04 04:09:36;;;;;;;10.77;4.20;;;19.10;99.90;;;;;;5046445;28;20057;-61
2022/08/04 04:12:29;;;;;;;12.07;4.50;;;19.00;99.90;;;;;;5048491;28;20112;-62
2022/08/04 04:15:19;;;;;;;4.95;3.25;;;19.00;99.90;;;;;;5044529;28;20031;-62
2022/08/04 04:17:45;;;;;;;6.93;3.75;;;19.00;99.90;;;;;;5052307;28;20033;-61
2022/08/04 04:20:55;;;;;;;10.20;4.32;;;19.00;99.90;;;;;;5046788;28;20113;-62
2022/08/04 04:23:47;;;;;;;6.53;4.78;;;19.00;99.90;;;;;;5037020;28;20045;-62
2022/08/04 04:26:36;;;;;;;9.75;4.70;;;19.00;99.90;;;;;;5049522;28;20053;-60
2022/08/04 04:29:21;;;;;;;10.05;4.63;;;19.00;99.90;;;;;;5036941;28;20056;-61
2022/08/04 04:31:53;;;;;;;;;;;19.00;99.90;;;;;;5049094;28;20190;-62
2022/08/04 04:34:37;;;;;;;13.13;4.35;;;18.90;99.90;;;;;;5049237;28;19988;-62
2022/08/04 04:37:18;;;;;;;7.35;4.53;;;19.00;99.90;;;;;;5050789;28;20096;-59
2022/08/04 04:39:58;;;;;;;7.22;4.22;;;18.90;99.90;;;;;;5046530;28;20036;-61
2022/08/04 04:42:36;;;;;;;5.07;3.53;;;19.00;99.90;;;;;;5050085;28;20079;-61
2022/08/04 04:45:33;;;;;;;6.75;4.10;;;19.00;99.90;;;;;;5046982;28;20025;-60
2022/08/04 04:48:29;;;;;;;6.90;3.90;;;19.00;99.90;;;;;;5043668;28;20120;-61
2022/08/04 04:51:07;;;;;;;7.60;4.65;;;19.00;99.90;;;;;;5026650;28;20100;-60
2022/08/04 04:53:46;;;;;;;10.85;4.10;;;19.10;99.90;;;;;;5046500;28;20471;-60
2022/08/04 04:56:39;;;;;;;10.80;4.57;;;19.10;99.90;;;;;;5047249;28;20510;-62
2022/08/04 04:59:10;;;;;;;10.25;4.45;;;19.20;99.90;;;;;;5044410;28;20040;-62
2022/08/04 05:02:25;;;;;;;12.55;4.68;;;19.30;99.90;;;;;;5050146;28;20051;-60
2022/08/04 05:05:02;;;;;;;9.68;4.38;;;19.40;99.90;;;;;;5043705;28;20040;-61
2022/08/04 05:07:51;;;;;;;9.10;4.40;;;19.50;99.90;;;;;;5046964;28;20025;-60
2022/08/04 05:10:26;;;;;;;5.88;4.03;;;19.50;99.90;;;;;;5045290;28;20029;-60
2022/08/04 05:13:16;;;;;;;6.43;4.55;;;19.60;99.90;;;;;;5051462;28;20036;-61
2022/08/04 05:15:45;;;;;;;8.07;4.45;;;19.60;99.90;;;;;;5050878;28;20099;-62
2022/08/04 05:18:17;;;;;;;14.88;4.00;;;19.70;99.90;;;;;;5046934;28;20029;-62
2022/08/04 05:20:47;;;;;;;13.32;4.32;;;19.70;99.90;;;;;;5042191;28;20104;-61
2022/08/04 05:23:18;;;;;;;8.43;3.95;;;19.80;99.90;;;;;;5047650;28;20032;-62
2022/08/04 05:25:46;;;;;;;8.43;4.55;;;19.80;99.90;;;;;;5046030;28;20107;-58
2022/08/04 05:28:19;;;;;;;7.43;4.50;;;19.90;99.90;;;;;;5049723;28;20029;-60
2022/08/04 05:31:04;;;;;;;6.97;4.28;;;19.90;99.90;;;;;;5045256;28;20022;-59
2022/08/04 05:33:56;;;;;;;6.50;4.03;;;20.00;99.90;;;;;;5045318;28;20045;-61
2022/08/04 05:36:29;;;;;;;5.95;4.03;;;20.00;99.90;;;;;;5041656;28;20101;-58
2022/08/04 05:38:58;;;;;;;7.97;4.40;;;20.10;99.90;;;;;;5048948;28;20041;-59
2022/08/04 05:41:26;;;;;;;9.90;5.25;;;20.20;99.90;;;;;;5042877;28;20596;-59
2022/08/04 05:43:52;;;;;;;8.40;4.32;;;20.30;99.90;;;;;;5045639;28;20036;-58
2022/08/04 05:46:18;;;;;;;6.93;4.57;;;20.40;99.90;;;;;;5048558;28;20025;-56
2022/08/04 05:48:45;;;;;;;6.22;4.68;;;20.40;99.90;;;;;;5046230;28;20017;-57
2022/08/04 05:51:13;;;;;;;9.60;4.28;;;20.50;99.90;;;;;;5044513;28;20056;-56
2022/08/04 05:53:43;;;;;;;7.88;4.72;;;20.50;99.90;;;;;;5043456;28;20060;-56
2022/08/04 05:56:11;;;;;;;8.57;4.63;;;20.60;99.90;;;;;;5044158;28;20070;-59
2022/08/04 05:58:37;;;;;;;9.30;5.47;;;20.60;99.90;;;;;;5044046;28;20037;-59
2022/08/04 06:01:04;;;;;;;10.07;7.13;;;20.70;99.90;;;;;;5042143;28;20073;-58
2022/08/04 06:03:31;;;;;;;8.85;5.15;;;20.70;99.90;;;;;;5022957;28;20045;-59
2022/08/04 06:05:57;;;;;;;9.27;5.05;;;20.80;99.90;;;;;;5044884;28;20025;-54
2022/08/04 06:08:23;;;;;;;8.40;4.28;;;20.90;99.90;;;;;;5039493;28;20028;-59
2022/08/04 06:10:52;;;;;;;12.90;4.35;;;21.00;99.90;;;;;;5044692;28;20029;-59
2022/08/04 06:13:24;;;;;;;17.02;5.53;;;21.10;99.90;;;;;;5039419;28;20029;-57
2022/08/04 06:15:53;;;;;;;10.43;4.07;;;21.20;99.90;;;;;;5039310;28;20099;-59
2022/08/04 06:18:19;;;;;;;7.00;4.25;;;21.30;99.90;;;;;;5044091;28;20026;-59
2022/08/04 06:20:47;;;;;;;4.95;3.28;;;21.50;99.90;;;;;;5044430;28;20441;-58
2022/08/04 06:23:15;;;;;;;7.22;4.22;;;21.60;99.90;;;;;;5046767;28;20116;-58
2022/08/04 06:25:48;;;;;;;8.32;3.75;;;21.70;99.90;;;;;;5039661;28;20112;-59
2022/08/04 06:28:16;;;;;;;5.93;3.80;;;21.80;99.90;;;;;;5044775;28;20021;-58
2022/08/04 06:30:46;;;;;;;7.00;3.83;;;21.90;99.90;;;;;;5050173;28;20028;-59
2022/08/04 06:33:25;;;;;;;8.77;3.70;;;22.00;99.90;;;;;;5043591;28;20060;-59
2022/08/04 06:35:54;;;;;;;7.15;3.72;;;22.10;99.90;;;;;;5046952;28;20029;-59
2022/08/04 06:38:24;;;;;;;9.90;3.97;;;22.10;99.90;;;;;;5043595;28;20025;-59
2022/08/04 06:40:52;;;;;;;5.72;3.67;;;22.20;99.90;;;;;;5045797;28;20029;-57
2022/08/04 06:43:18;;;;;;;6.03;3.42;;;22.30;99.90;;;;;;5042410;28;21833;-58
2022/08/04 06:45:44;;;;;;;6.95;3.83;;;22.40;99.90;;;;;;5045249;28;20120;-58
2022/08/04 06:48:13;;;;;;;6.85;3.38;;;22.40;99.90;;;;;;5044525;28;20113;-59
2022/08/04 06:50:40;;;;;;;4.72;3.13;;;22.50;99.90;;;;;;5042202;28;20017;-59
2022/08/04 06:53:05;;;;;;;4.40;3.47;;;22.60;99.90;;;;;;5045434;28;20029;-58
2022/08/04 06:55:33;;;;;;;12.07;3.65;;;22.60;99.90;;;;;;5046139;28;20040;-57
2022/08/04 06:58:00;;;;;;;5.85;4.05;;;22.60;99.90;;;;;;5043591;28;20025;-59
2022/08/04 07:00:26;;;;;;;7.30;4.00;;;22.70;99.90;;;;;;5040608;28;20489;-58
2022/08/04 07:02:52;;;;;;;5.00;3.20;;;22.70;99.90;;;;;;5042413;28;20175;-58
2022/08/04 07:05:19;;;;;;;6.20;3.63;;;22.80;99.90;;;;;;5048350;28;20111;-59
2022/08/04 07:07:45;;;;;;;7.88;3.65;;;22.90;99.90;;;;;;5042479;28;20021;-60
2022/08/04 07:10:13;;;;;;;6.47;4.47;;;22.90;99.90;;;;;;5047741;28;20029;-59
2022/08/04 07:12:39;;;;;;;5.80;3.55;;;23.10;99.90;;;;;;5045086;28;20903;-60
2022/08/04 07:15:07;;;;;;;6.20;3.28;;;23.20;99.90;;;;;;5043925;28;20470;-58
2022/08/04 07:17:34;;;;;;;4.63;3.53;;;23.30;99.90;;;;;;5034246;28;20036;-58
2022/08/04 07:20:00;;;;;;;5.57;3.38;;;23.40;99.90;;;;;;5046101;28;20032;-58
2022/08/04 07:22:27;;;;;;;9.55;3.42;;;23.60;99.90;;;;;;5042321;28;20029;-59
2022/08/04 07:24:57;;;;;;;7.00;3.25;;;23.60;99.90;;;;;;5045819;28;20052;-60
2022/08/04 07:27:24;;;;;;;9.82;3.03;;;23.70;99.90;;;;;;5041433;28;20143;-60
2022/08/04 07:29:50;;;;;;;9.75;3.97;;;23.80;99.90;;;;;;5042192;28;20103;-59
2022/08/04 07:32:19;;;;;;;4.95;3.42;;;23.90;99.90;;;;;;5058219;22;20045;-58
2022/08/04 07:34:47;;;;;;;7.40;3.63;;;24.00;99.90;;;;;;5027702;28;20025;-58
2022/08/04 07:37:13;;;;;;;6.18;3.72;;;24.10;99.90;;;;;;5026425;28;20022;-59
2022/08/04 07:39:39;;;;;;;5.90;3.97;;;24.10;99.90;;;;;;5028864;28;20479;-59
2022/08/04 07:42:05;;;;;;;4.85;3.53;;;24.20;99.90;;;;;;5028904;28;20045;-59
2022/08/04 07:44:32;;;;;;;5.88;3.63;;;24.30;99.90;;;;;;5028606;28;20399;-59
2022/08/04 07:46:58;;;;;;;7.28;3.53;;;24.40;99.90;;;;;;5028620;28;20423;-59
2022/08/04 07:49:25;;;;;;;4.05;3.08;;;24.50;99.90;;;;;;5029866;28;20430;-59
2022/08/04 07:51:52;;;;;;;5.05;3.22;;;24.60;99.90;;;;;;5032520;28;20112;-60
2022/08/04 07:54:18;;;;;;;5.60;3.40;;;24.70;99.90;;;;;;5031409;28;20096;-59
2022/08/04 07:56:43;;;;;;;6.00;3.53;;;24.80;99.90;;;;;;5032211;28;20788;-58
2022/08/04 07:59:09;;;;;;;6.45;3.17;;;25.00;99.90;;;;;;5032618;28;20115;-59
2022/08/04 08:01:36;;;;;;;5.85;3.45;;;25.00;99.90;;;;;;5030968;28;20032;-60
2022/08/04 08:04:04;;;;;;;10.75;3.85;;;25.20;99.90;;;;;;5032370;28;20037;-58
2022/08/04 08:06:30;;;;;;;4.57;3.15;;;25.20;99.90;;;;;;5031499;28;20029;-60
2022/08/04 08:08:56;;;;;;;9.05;3.50;;;25.30;99.90;;;;;;5031699;28;20029;-58
2022/08/04 08:11:22;;;;;;;7.82;3.33;;;25.50;99.90;;;;;;5029701;28;20031;-59
2022/08/04 08:13:48;;;;;;;5.93;2.90;;;25.60;99.90;;;;;;5032218;28;20034;-60
2022/08/04 08:16:14;;;;;;;5.70;3.47;;;25.70;99.90;;;;;;5030311;28;20150;-58
2022/08/04 08:18:39;;;;;;;4.63;2.80;;;25.80;99.90;;;;;;5031653;28;20495;-58
2022/08/04 08:21:06;;;;;;;7.47;3.60;;;26.00;99.90;;;;;;5030127;28;20041;-60
2022/08/04 08:23:34;;;;;;;7.28;3.17;;;26.10;99.90;;;;;;5029850;28;20053;-59
2022/08/04 08:26:00;;;;;;;4.95;3.00;;;26.30;99.90;;;;;;5025265;28;20397;-59
2022/08/04 08:28:26;;;;;;;14.43;3.03;;;26.40;99.90;;;;;;5030034;28;20029;-59
2022/08/04 08:30:52;;;;;;;5.40;3.05;;;26.50;99.90;;;;;;5030027;28;20037;-60
2022/08/04 08:33:18;;;;;;;4.07;2.92;;;26.60;99.90;;;;;;5032371;28;20037;-59
2022/08/04 08:35:53;;;;;;;6.45;3.03;;;26.80;99.90;;;;;;5031110;28;20032;-59
2022/08/04 08:38:33;;;;;;;5.25;2.80;;;26.90;99.90;;;;;;5030814;28;20453;-59
2022/08/04 08:41:30;;;;;;;4.40;3.00;;;27.00;99.90;;;;;;5029592;28;20033;-59
2022/08/04 08:44:13;;;;;;;6.53;2.97;;;27.20;99.90;;;;;;5028789;28;20033;-60
2022/08/04 08:47:00;;;;;;;5.13;2.87;;;27.40;99.90;;;;;;5028757;28;20112;-61
2022/08/04 08:49:56;;;;;;;8.43;3.22;;;27.50;99.90;;;;;;5025863;28;20064;-57
2022/08/04 08:52:36;;;;;;;9.40;2.42;;;27.70;99.90;;;;;;5028411;28;20376;-60
2022/08/04 08:55:34;;;;;;;11.68;3.05;;;27.90;99.90;;;;;;5030877;28;20034;-60
2022/08/04 08:58:28;;;;;;;5.75;2.60;;;28.00;99.90;;;;;;4999229;28;20045;-60
2022/08/04 09:01:03;;;;;;;5.65;2.78;;;28.20;99.90;;;;;;5025202;28;20033;-60
2022/08/04 09:04:05;;;;;;;5.07;2.53;;;28.40;99.90;;;;;;5030194;28;20073;-58
2022/08/04 09:07:00;;;;;;;10.18;3.25;;;28.60;99.90;;;;;;5026878;28;20029;-60
2022/08/04 09:09:52;;;;;;;10.20;2.78;;;28.80;99.90;;;;;;5021718;28;20025;-59
2022/08/04 09:12:38;;;;;;;7.15;2.42;;;29.10;99.90;;;;;;5026387;28;20025;-58
2022/08/04 09:15:12;;;;;;;7.18;2.65;;;29.40;99.90;;;;;;5031466;28;20034;-58
2022/08/04 09:17:51;;;;;;;5.82;1.88;;;29.60;99.90;;;;;;5030694;28;20108;-60
2022/08/04 09:20:27;;;;;;;6.47;2.15;;;29.80;99.90;;;;;;5030169;28;20095;-56
2022/08/04 09:23:11;;;;;;;3.35;2.20;;;29.90;99.90;;;;;;5026534;28;20018;-58
2022/08/04 09:25:48;;;;;;;7.40;2.47;;;30.10;99.90;;;;;;5028983;28;20114;-59
2022/08/04 09:28:24;;;;;;;7.28;2.88;;;30.10;99.90;;;;;;5030313;28;20037;-58
2022/08/04 09:30:49;;;;;;;3.55;2.30;;;30.10;99.90;;;;;;5031174;28;20017;-58
2022/08/04 09:33:44;;;;;;;4.13;2.40;;;30.20;99.90;;;;;;5031141;28;20491;-60
2022/08/04 09:36:23;;;;;;;5.78;2.50;;;30.40;99.90;;;;;;5013025;28;20108;-60
2022/08/04 09:39:14;;;;;;;7.07;2.88;;;30.60;99.90;;;;;;5027618;28;20061;-59
2022/08/04 09:42:13;;;;;;;6.45;2.22;;;30.90;99.90;;;;;;5029534;28;20034;-59
2022/08/04 09:44:56;;;;;;;8.57;2.42;;;31.20;99.90;;;;;;5025287;28;20493;-60
2022/08/04 09:47:38;;;;;;;9.20;2.63;;;31.50;99.90;;;;;;5030699;28;20536;-58
2022/08/04 09:50:29;;;;;;;7.63;2.28;;;31.80;99.90;;;;;;5031113;28;20025;-57
2022/08/04 09:52:54;;;;;;;5.20;1.88;;;31.90;99.90;;;;;;5030851;28;20036;-59
2022/08/04 09:55:47;;;;;;;4.97;2.15;;;32.00;99.90;;;;;;5026784;28;20033;-56
2022/08/04 09:58:36;;;;;;;7.45;2.17;;;32.00;99.90;;;;;;5024568;28;20041;-55
2022/08/04 10:01:07;;;;;;;5.13;1.55;;;32.00;99.90;;;;;;5027426;28;20073;-53
2022/08/04 10:03:41;;;;;;;4.03;1.70;;;32.00;99.90;;;;;;5030431;28;20032;-56
2022/08/04 10:06:22;;;;;;;;;;;32.40;99.80;;;;;;5029897;28;20111;-57
2022/08/04 10:09:29;;;;;;;8.75;1.85;;;32.70;97.50;;;;;;5028845;28;20385;-56
2022/08/04 10:12:16;;;;;;;5.35;1.65;;;32.80;97.50;;;;;;5025986;28;20048;-58
2022/08/04 10:14:52;;;;;;;13.30;2.78;;;33.00;96.60;;;;;;5022942;28;20510;-59
2022/08/04 10:17:39;;;;;;;3.72;2.33;;;33.20;96.50;;;;;;5026238;28;20033;-58
2022/08/04 10:20:17;;;;;;;11.63;2.17;;;33.30;96.40;;;;;;5030388;28;20029;-58
2022/08/04 10:23:03;;;;;;;3.80;2.03;;;33.30;95.50;;;;;;5029844;28;20025;-57
2022/08/04 10:25:52;;;;;;;5.70;2.33;;;33.20;95.90;;;;;;5022373;28;20526;-57
2022/08/04 10:28:20;;;;;;;5.50;2.22;;;33.00;96.20;;;;;;4979522;28;20399;-59
2022/08/04 10:30:56;;;;;;;7.10;2.20;;;32.80;96.70;;;;;;5028327;28;20025;-57
2022/08/04 10:33:31;;;;;;;10.05;2.92;;;32.80;96.70;;;;;;5029524;28;20043;-58
2022/08/04 10:36:01;;;;;;;1.83;1.38;;;32.80;95.90;;;;;;5025866;28;20658;-58
2022/08/04 10:38:49;;;;;;;3.20;1.45;;;32.80;94.80;;;;;;5025341;28;20033;-58
2022/08/04 10:41:31;;;;;;;5.53;1.65;;;32.80;94.80;;;;;;5022585;28;20101;-57
2022/08/04 10:44:14;;;;;;;3.28;1.67;;;32.90;94.50;;;;;;5023451;28;20032;-60
2022/08/04 10:46:51;;;;;;;2.67;1.20;;;32.80;93.40;;;;;;5025463;28;20032;-58
2022/08/04 10:49:32;;;;;;;1.52;1.00;;;32.80;93.10;;;;;;5029660;28;20032;-59
2022/08/04 10:52:07;;;;;;;2.97;1.10;;;32.80;92.10;;;;;;5026303;28;20105;-58
2022/08/04 10:54:51;;;;;;;3.97;1.50;;;32.80;91.00;;;;;;5021873;28;20522;-60
2022/08/04 10:57:34;;;;;;;1.83;1.20;;;33.10;91.00;;;;;;5024242;28;20510;-59
2022/08/04 11:00:05;;;;;;;4.85;1.33;;;33.50;88.50;;;;;;5027216;28;20049;-60
2022/08/04 11:03:01;;;;;;;2.45;1.25;;;34.00;87.60;;;;;;5027133;28;20092;-60
2022/08/04 11:05:51;;;;;;;4.75;1.25;;;34.30;86.20;;;;;;5025299;28;20052;-59
2022/08/04 11:08:24;;;;;;;4.93;1.38;;;34.50;86.20;;;;;;5027646;28;20018;-60
2022/08/04 11:11:08;;;;;;;4.10;1.27;;;34.70;83.90;;;;;;5027756;28;20248;-58
2022/08/04 11:14:02;;;;;;;6.85;1.67;;;34.80;84.80;;;;;;5027717;28;20120;-59
2022/08/04 11:16:54;;;;;;;1.98;1.52;;;35.10;84.60;;;;;;5026037;28;20271;-58
2022/08/04 11:19:32;;;;;;;3.67;1.88;;;34.80;87.20;;;;;;5025155;28;20420;-57
2022/08/04 11:22:05;;;;;;;9.90;1.75;;;34.50;89.60;;;;;;5019234;28;20048;-58
2022/08/04 11:24:39;;;;;;;11.07;2.25;;;34.70;90.40;;;;;;5027510;28;20021;-59
2022/08/04 11:27:12;;;;;;;1.60;1.50;;;34.90;90.20;;;;;;5027122;28;20029;-58
2022/08/04 11:29:54;;;;;;;6.97;1.70;;;34.80;90.30;;;;;;5030778;28;20021;-58
2022/08/04 11:32:33;;;;;;;6.60;1.63;;;34.50;90.60;;;;;;5033406;28;20033;-58
2022/08/04 11:35:03;;;;;;;6.68;1.60;;;34.30;90.90;;;;;;5031433;28;20021;-59
2022/08/04 11:37:44;;;;;;;3.78;1.67;;;34.00;91.00;;;;;;5032256;28;20033;-58
2022/08/04 11:40:22;;;;;;;12.80;2.13;;;33.60;91.50;;;;;;5030559;28;20037;-59
2022/08/04 11:43:05;;;;;;;8.63;1.88;;;33.50;91.70;;;;;;5029495;28;20040;-59
2022/08/04 11:45:36;;;;;;;7.63;1.98;;;33.40;91.60;;;;;;5028896;28;20080;-60
2022/08/04 11:48:37;;;;;;;7.75;1.42;;;33.40;92.00;;;;;;5029383;28;20513;-60
2022/08/04 11:51:05;;;;;;;8.43;1.83;;;33.30;92.80;;;;;;5014977;28;20038;-58
2022/08/04 11:53:33;;;;;;;4.97;1.67;;;33.20;92.80;;;;;;5033803;28;20026;-58
2022/08/04 11:56:04;;;;;;;7.90;1.83;;;33.10;93.10;;;;;;5028706;28;20026;-59
2022/08/04 11:58:31;;;;;;;3.65;1.50;;;33.00;92.90;;;;;;5012562;28;20040;-60
2022/08/04 12:01:42;;;;;;;11.13;1.90;;;32.80;92.90;;;;;;5032745;28;20297;-58
2022/08/04 12:04:31;;;;;;;4.97;1.77;;;32.70;93.40;;;;;;5026087;28;20029;-60
2022/08/04 12:07:20;;;;;;;9.32;2.03;;;32.60;93.50;;;;;;5029411;28;20033;-58
2022/08/04 12:10:12;;;;;;;2.90;1.65;;;32.60;93.80;;;;;;5030169;28;20032;-57
2022/08/04 12:13:04;;;;;;;4.05;1.70;;;32.60;93.50;;;;;;5031266;28;20426;-59
2022/08/04 12:15:47;;;;;;;2.80;1.58;;;32.70;93.50;;;;;;5032622;28;20064;-58
2022/08/04 12:18:31;;;;;;;9.18;2.00;;;32.60;93.40;;;;;;5031960;28;20030;-58
2022/08/04 12:20:58;;;;;;;;;;;32.50;93.30;;;;;;5032989;28;20505;-58
2022/08/04 12:23:31;;;;;;;2.15;1.42;;;32.30;93.70;;;;;;5031321;28;19916;-58
2022/08/04 12:26:02;;;;;;;3.42;1.52;;;32.00;93.10;;;;;;5028124;28;20028;-59
2022/08/04 12:28:32;;;;;;;5.45;1.58;;;31.90;93.60;;;;;;5032553;28;20033;-59
2022/08/04 12:31:06;;;;;;;6.03;1.90;;;31.80;94.00;;;;;;5032493;28;20025;-58
2022/08/04 12:33:51;;;;;;;3.42;1.60;;;31.70;94.30;;;;;;5032173;28;20128;-58
2022/08/04 12:36:36;;;;;;;4.03;1.60;;;31.60;94.50;;;;;;5029674;28;20025;-60
2022/08/04 12:39:17;;;;;;;5.25;2.50;;;31.40;95.20;;;;;;5027946;28;20161;-59
2022/08/04 12:41:57;;;;;;;4.07;1.65;;;31.40;95.30;;;;;;5028730;28;20499;-59
2022/08/04 12:44:30;;;;;;;3.15;2.03;;;31.30;95.60;;;;;;5031020;28;20109;-60
2022/08/04 12:46:58;;;;;;;5.43;2.13;;;31.40;95.80;;;;;;5030161;28;20044;-59
2022/08/04 12:49:24;;;;;;;12.13;2.70;;;31.30;96.00;;;;;;5031670;28;20063;-58
2022/08/04 12:51:52;;;;;;;6.97;2.50;;;31.40;96.30;;;;;;5032329;28;20036;-59
2022/08/04 12:54:24;;;;;;;14.93;2.72;;;31.40;96.20;;;;;;5032024;28;20025;-59
2022/08/04 12:56:51;;;;;;;13.95;2.30;;;31.50;96.20;;;;;;5030405;28;20079;-59
2022/08/04 12:59:17;;;;;;;5.68;2.00;;;31.70;96.40;;;;;;5029721;28;20264;-59
2022/08/04 13:01:50;;;;;;;9.07;2.08;;;31.90;96.30;;;;;;5031786;28;20031;-59
2022/08/04 13:04:26;;;;;;;5.60;2.03;;;32.00;96.40;;;;;;5031194;28;20022;-59
2022/08/04 13:07:06;;;;;;;9.32;2.10;;;32.00;96.40;;;;;;5030469;28;20323;-59
2022/08/04 13:09:33;;;;;;;9.07;1.90;;;32.00;96.60;;;;;;5026132;28;20022;-60
2022/08/04 13:12:04;;;;;;;12.57;2.17;;;32.00;96.00;;;;;;5029485;28;20147;-59
2022/08/04 13:14:36;;;;;;;7.47;1.75;;;31.90;95.80;;;;;;5032088;28;20026;-59
2022/08/04 13:17:03;;;;;;;6.25;2.03;;;32.30;95.70;;;;;;5030006;28;20087;-59
2022/08/04 13:19:29;;;;;;;7.65;1.75;;;33.00;94.90;;;;;;5031332;28;20017;-60
2022/08/04 13:21:56;;;;;;;16.90;3.45;;;33.40;93.80;;;;;;5031286;28;20028;-58
2022/08/04 13:24:23;;;;;;;8.32;1.50;;;33.30;93.70;;;;;;5030307;28;20104;-59
2022/08/04 13:27:00;;;;;;;5.22;1.98;;;33.00;94.30;;;;;;5029892;28;20032;-59
2022/08/04 13:29:46;;;;;;;5.75;1.92;;;33.00;94.10;;;;;;5027343;28;20485;-59
2022/08/04 13:34:58;;;;;;;14.33;3.10;;;33.30;93.80;;;;;;4992498;28;20050;-58
2022/08/04 13:37:29;;;;;;;9.25;1.77;;;33.30;94.20;;;;;;4993314;28;20040;-59
2022/08/04 13:39:56;;;;;;;6.78;1.88;;;33.30;93.50;;;;;;4988967;28;20373;-59
2022/08/04 13:42:24;;;;;;;6.20;2.00;;;33.10;93.30;;;;;;4988600;28;20026;-60
2022/08/04 13:44:54;;;;;;;10.13;2.00;;;33.00;93.50;;;;;;4988404;28;20018;-58